createdAt,value
2022-10-13T00:01:26.475Z,94.28
2022-10-13T00:03:58.883Z,94.90
2022-10-13T00:06:31.369Z,94.72
2022-10-13T00:09:03.694Z,94.48
2022-10-13T00:11:36.653Z,93.80
2022-10-13T00:14:09.100Z,94.67
2022-10-13T00:16:41.432Z,95.16
2022-10-13T00:19:15.160Z,95.37
2022-10-13T00:21:47.624Z,95.65
2022-10-13T00:24:19.956Z,95.76
2022-10-13T00:26:52.935Z,94.60
2022-10-13T00:29:25.357Z,94.08
2022-10-13T00:31:57.676Z,94.31
2022-10-13T00:34:29.968Z,93.64
2022-10-13T00:37:02.254Z,93.74
2022-10-13T00:39:36.620Z,94.23
2022-10-13T00:42:12.768Z,94.54
2022-10-13T00:45:03.844Z,93.94
2022-10-13T00:47:42.596Z,94.43
2022-10-13T00:50:17.645Z,94.76
2022-10-13T00:52:54.154Z,94.93
2022-10-13T00:55:33.593Z,94.77
2022-10-13T00:58:10.015Z,95.04
2022-10-13T01:00:45.000Z,94.97
2022-10-13T01:03:20.931Z,95.25
2022-10-13T01:05:56.815Z,95.20
2022-10-13T01:08:29.630Z,95.33
2022-10-13T01:11:26.297Z,95.54
2022-10-13T01:14:07.278Z,95.52
2022-10-13T01:16:46.591Z,95.58
2022-10-13T01:19:37.775Z,95.90
2022-10-13T01:22:27.906Z,96.28
2022-10-13T01:25:08.413Z,94.23
2022-10-13T01:28:05.119Z,93.90
2022-10-13T01:30:45.461Z,94.57
2022-10-13T01:33:30.123Z,95.04
2022-10-13T01:36:15.666Z,95.27
2022-10-13T01:38:54.349Z,95.82
2022-10-13T01:41:35.190Z,95.74
2022-10-13T01:44:15.535Z,95.97
2022-10-13T01:46:56.938Z,96.39
2022-10-13T01:49:33.999Z,96.59
2022-10-13T01:52:09.371Z,96.97
2022-10-13T01:54:41.798Z,96.43
2022-10-13T01:57:30.922Z,95.94
2022-10-13T02:00:06.850Z,96.22
2022-10-13T02:02:56.711Z,96.66
2022-10-13T02:05:40.149Z,97.03
2022-10-13T02:08:18.775Z,96.58
2022-10-13T02:10:56.443Z,96.75
2022-10-13T02:13:33.035Z,97.05
2022-10-13T02:16:06.179Z,96.89
2022-10-13T02:18:39.830Z,97.04
2022-10-13T02:21:12.175Z,97.62
2022-10-13T02:23:45.428Z,97.82
2022-10-13T02:26:18.354Z,97.51
2022-10-13T02:28:50.921Z,96.61
2022-10-13T02:31:23.325Z,96.20
2022-10-13T02:33:56.334Z,96.55
2022-10-13T02:36:28.610Z,96.59
2022-10-13T02:39:01.131Z,96.56
2022-10-13T02:41:33.563Z,96.61
2022-10-13T02:44:06.698Z,96.93
2022-10-13T02:46:39.848Z,96.99
2022-10-13T02:49:13.062Z,97.06
2022-10-13T02:51:45.370Z,96.96
2022-10-13T02:54:17.840Z,96.95
2022-10-13T02:56:50.114Z,96.72
2022-10-13T02:59:22.421Z,96.22
2022-10-13T03:01:55.421Z,96.30
2022-10-13T03:04:29.247Z,96.41
2022-10-13T03:07:04.828Z,96.25
2022-10-13T03:09:37.110Z,96.10
2022-10-13T03:12:09.477Z,96.09
2022-10-13T03:14:42.967Z,96.18
2022-10-13T03:17:15.272Z,95.48
2022-10-13T03:19:48.264Z,95.90
2022-10-13T03:22:23.706Z,96.19
2022-10-13T03:24:57.596Z,95.90
2022-10-13T03:27:29.874Z,96.30
2022-10-13T03:30:02.271Z,96.08
2022-10-13T03:32:34.630Z,96.53
2022-10-13T03:35:08.442Z,96.74
2022-10-13T03:37:40.952Z,97.30
2022-10-13T03:40:13.280Z,97.59
2022-10-13T03:42:45.561Z,97.33
2022-10-13T03:45:21.249Z,97.66
2022-10-13T03:47:53.550Z,97.04
2022-10-13T03:50:26.562Z,97.10
2022-10-13T03:52:59.869Z,97.53
2022-10-13T03:55:32.205Z,97.08
2022-10-13T03:58:04.470Z,96.99
2022-10-13T04:00:36.890Z,97.26
2022-10-13T04:03:09.575Z,97.58
2022-10-13T04:05:42.966Z,97.56
2022-10-13T04:08:15.278Z,97.35
2022-10-13T04:10:47.637Z,96.28
2022-10-13T04:13:19.957Z,97.65
2022-10-13T04:16:02.207Z,98.00
2022-10-13T04:18:34.728Z,98.40
2022-10-13T04:21:09.575Z,98.63
2022-10-13T04:23:42.139Z,98.34
2022-10-13T04:26:16.992Z,97.90
2022-10-13T04:28:51.504Z,98.05
2022-10-13T04:31:25.584Z,98.89
2022-10-13T04:33:58.231Z,99.97
2022-10-13T04:36:31.323Z,99.40
2022-10-13T04:39:03.848Z,99.96
2022-10-13T04:41:38.587Z,100.00
2022-10-13T04:44:11.027Z,100.00
2022-10-13T04:46:43.377Z,100.00
2022-10-13T04:49:16.015Z,100.00
2022-10-13T04:51:49.023Z,100.00
2022-10-13T04:54:21.423Z,100.00
2022-10-13T04:56:53.712Z,100.00
2022-10-13T04:59:26.190Z,100.00
2022-10-13T05:01:58.592Z,100.00
2022-10-13T05:04:30.926Z,100.00
2022-10-13T05:07:17.554Z,100.00
2022-10-13T05:09:51.590Z,100.00
2022-10-13T05:12:23.969Z,100.00
2022-10-13T05:14:57.252Z,100.00
2022-10-13T05:17:35.059Z,100.00
2022-10-13T05:20:11.999Z,100.00
2022-10-13T05:22:45.077Z,100.00
2022-10-13T05:25:17.673Z,100.00
2022-10-13T05:27:50.050Z,100.00
2022-10-13T05:30:22.387Z,100.00
2022-10-13T05:32:54.690Z,100.00
2022-10-13T05:35:27.891Z,100.00
2022-10-13T05:38:00.833Z,100.00
2022-10-13T05:40:33.255Z,100.00
2022-10-13T05:43:05.684Z,100.00
2022-10-13T05:45:38.777Z,100.00
2022-10-13T05:48:11.046Z,100.00
2022-10-13T05:50:43.392Z,100.00
2022-10-13T05:53:16.819Z,100.00
2022-10-13T05:55:49.976Z,100.00
2022-10-13T05:58:23.087Z,100.00
2022-10-13T06:00:55.501Z,100.00
2022-10-13T06:03:28.383Z,100.00
2022-10-13T06:06:01.742Z,100.00
2022-10-13T06:08:35.112Z,100.00
2022-10-13T06:11:07.418Z,100.00
2022-10-13T06:13:39.726Z,100.00
2022-10-13T06:16:12.024Z,100.00
2022-10-13T06:18:44.331Z,100.00
2022-10-13T06:21:16.970Z,100.00
2022-10-13T06:23:49.925Z,100.00
2022-10-13T06:26:25.716Z,100.00
2022-10-13T06:28:59.765Z,100.00
2022-10-13T06:31:32.838Z,100.00
2022-10-13T06:34:05.116Z,100.00
2022-10-13T06:36:37.605Z,100.00
2022-10-13T06:39:10.714Z,100.00
2022-10-13T06:41:43.011Z,100.00
2022-10-13T06:44:15.469Z,100.00
2022-10-13T06:46:47.906Z,97.81
2022-10-13T06:49:20.662Z,97.27
2022-10-13T06:51:53.063Z,96.83
2022-10-13T06:54:26.096Z,96.74
2022-10-13T06:56:58.386Z,95.05
2022-10-13T06:59:30.734Z,94.33
2022-10-13T07:02:03.216Z,94.39
2022-10-13T07:04:35.531Z,94.61
2022-10-13T07:07:07.862Z,96.20
2022-10-13T07:09:40.801Z,96.75
2022-10-13T07:12:13.231Z,95.11
2022-10-13T07:14:45.531Z,94.10
2022-10-13T07:17:18.714Z,93.79
2022-10-13T07:19:55.773Z,94.42
2022-10-13T07:22:31.067Z,92.13
2022-10-13T07:25:04.652Z,90.08
2022-10-13T07:27:39.613Z,90.17
2022-10-13T07:30:12.414Z,89.01
2022-10-13T07:32:45.626Z,88.21
2022-10-13T07:35:18.038Z,87.83
2022-10-13T07:37:52.737Z,85.92
2022-10-13T07:40:26.046Z,84.85
2022-10-13T07:42:58.347Z,84.03
2022-10-13T07:45:30.980Z,84.24
2022-10-13T07:48:03.631Z,84.61
2022-10-13T07:50:36.435Z,85.08
2022-10-13T07:53:08.758Z,85.64
2022-10-13T07:55:41.735Z,83.45
2022-10-13T07:58:14.159Z,84.02
2022-10-13T08:00:55.623Z,84.25
2022-10-13T08:03:31.989Z,85.21
2022-10-13T08:06:05.299Z,84.11
2022-10-13T08:08:39.443Z,83.06
2022-10-13T08:11:16.490Z,82.75
2022-10-13T08:13:51.184Z,83.54
2022-10-13T08:16:27.034Z,82.19
2022-10-13T08:18:59.776Z,82.56
2022-10-13T08:24:24.474Z,82.58
2022-10-13T08:26:57.697Z,81.19
2022-10-13T08:29:30.062Z,80.78
2022-10-13T08:32:02.478Z,80.29
2022-10-13T08:34:36.167Z,78.41
2022-10-13T08:37:13.232Z,77.64
2022-10-13T08:39:45.567Z,77.90
2022-10-13T08:42:21.722Z,77.99
2022-10-13T08:47:54.192Z,76.62
2022-10-13T08:50:29.630Z,72.72
2022-10-13T08:53:04.526Z,71.85
2022-10-13T08:55:41.858Z,69.93
2022-10-13T08:58:19.602Z,70.09
2022-10-13T09:01:00.788Z,69.02
2022-10-13T09:03:43.344Z,70.09
2022-10-13T09:06:18.502Z,68.37
2022-10-13T09:08:53.907Z,67.74
2022-10-13T09:11:28.720Z,68.43
2022-10-13T09:14:04.956Z,67.11
2022-10-13T09:16:39.767Z,68.51
2022-10-13T09:19:21.903Z,64.93
2022-10-13T09:21:56.779Z,63.35
2022-10-13T09:24:29.068Z,62.74
2022-10-13T09:27:06.178Z,63.47
2022-10-13T09:29:41.531Z,63.48
2022-10-13T09:32:17.846Z,66.10
2022-10-13T09:34:51.108Z,66.46
2022-10-13T09:37:25.302Z,66.77
2022-10-13T09:40:02.383Z,66.55
2022-10-13T09:42:34.755Z,66.68
2022-10-13T09:45:15.449Z,67.16
2022-10-13T09:47:54.414Z,68.93
2022-10-13T09:50:29.094Z,68.70
2022-10-13T09:53:18.735Z,69.42
2022-10-13T09:56:14.899Z,68.51
2022-10-13T09:58:53.741Z,68.13
2022-10-13T10:01:34.272Z,65.69
2022-10-13T10:04:12.481Z,65.99
2022-10-13T10:06:45.593Z,64.51
2022-10-13T10:09:36.202Z,61.85
2022-10-13T10:12:15.263Z,60.60
2022-10-13T10:14:49.410Z,59.82
2022-10-13T10:17:29.692Z,58.51
2022-10-13T10:20:28.591Z,57.67
2022-10-13T10:23:05.907Z,57.27
2022-10-13T10:25:42.319Z,56.55
2022-10-13T10:28:40.430Z,56.14
2022-10-13T10:31:24.604Z,52.80
2022-10-13T10:34:07.100Z,55.34
2022-10-13T10:36:51.250Z,54.08
2022-10-13T10:39:31.750Z,52.56
2022-10-13T10:42:16.816Z,53.76
2022-10-13T10:44:53.048Z,52.97
2022-10-13T10:47:29.869Z,53.08
2022-10-13T10:50:06.650Z,54.36
2022-10-13T10:52:55.135Z,53.46
2022-10-13T10:55:33.234Z,58.48
2022-10-13T10:58:12.254Z,60.27
2022-10-13T11:00:53.602Z,60.46
2022-10-13T11:03:39.347Z,61.11
2022-10-13T11:06:31.336Z,60.62
2022-10-13T11:09:05.843Z,60.73
2022-10-13T11:11:40.144Z,60.44
2022-10-13T11:14:22.882Z,61.11
2022-10-13T11:17:08.871Z,59.02
2022-10-13T11:19:41.321Z,59.91
2022-10-13T11:22:20.033Z,59.00
2022-10-13T11:24:58.855Z,59.29
2022-10-13T11:27:40.205Z,59.42
2022-10-13T11:30:42.565Z,58.83
2022-10-13T11:33:50.866Z,58.60
2022-10-13T11:36:55.647Z,58.87
2022-10-13T11:40:09.381Z,59.11
2022-10-13T11:43:09.393Z,59.30
2022-10-13T11:45:59.639Z,57.94
2022-10-13T11:49:16.792Z,58.77
2022-10-13T11:52:18.143Z,58.05
2022-10-13T11:54:55.350Z,58.76
2022-10-13T11:57:28.672Z,60.35
2022-10-13T12:00:01.404Z,58.98
2022-10-13T12:02:49.766Z,58.09
2022-10-13T12:05:27.098Z,59.06
2022-10-13T12:08:03.919Z,57.09
2022-10-13T12:10:37.318Z,56.99
2022-10-13T12:13:20.783Z,55.74
2022-10-13T12:16:05.488Z,56.28
2022-10-13T12:18:40.208Z,56.47
2022-10-13T12:21:13.871Z,54.37
2022-10-13T12:23:46.823Z,54.09
2022-10-13T12:26:21.053Z,54.31
2022-10-13T12:28:55.527Z,53.43
2022-10-13T12:31:30.326Z,54.93
2022-10-13T12:34:02.601Z,55.86
2022-10-13T12:36:35.737Z,56.81
2022-10-13T12:39:13.953Z,56.54
2022-10-13T12:41:48.418Z,55.31
2022-10-13T12:44:24.337Z,56.37
2022-10-13T12:46:58.428Z,56.59
2022-10-13T12:49:33.402Z,55.55
2022-10-13T12:52:10.498Z,57.42
2022-10-13T12:54:48.414Z,57.04
2022-10-13T12:57:34.532Z,58.42
2022-10-13T13:00:21.411Z,58.39
2022-10-13T13:02:55.560Z,57.66
2022-10-13T13:05:33.417Z,59.10
2022-10-13T13:08:23.079Z,57.63
2022-10-13T13:10:55.923Z,56.77
2022-10-13T13:13:29.520Z,57.65
2022-10-13T13:16:16.515Z,57.26
2022-10-13T13:18:49.955Z,55.31
2022-10-13T13:21:24.512Z,56.27
2022-10-13T13:23:56.819Z,55.60
2022-10-13T13:26:29.174Z,54.57
2022-10-13T13:29:01.479Z,53.81
2022-10-13T13:31:34.486Z,54.77
2022-10-13T13:34:06.819Z,54.70
2022-10-13T13:36:39.334Z,54.33
2022-10-13T13:39:15.396Z,55.28
2022-10-13T13:41:48.235Z,52.67
2022-10-13T13:44:20.499Z,50.61
2022-10-13T13:46:54.500Z,52.22
2022-10-13T13:49:26.799Z,51.43
2022-10-13T13:51:59.143Z,51.87
2022-10-13T13:54:31.427Z,51.61
2022-10-13T13:57:04.750Z,52.27
2022-10-13T13:59:37.872Z,52.51
2022-10-13T14:02:14.612Z,52.12
2022-10-13T14:04:47.226Z,51.87
2022-10-13T14:07:20.011Z,52.72
2022-10-13T14:09:55.490Z,51.81
2022-10-13T14:12:32.439Z,53.12
2022-10-13T14:15:05.870Z,52.60
2022-10-13T14:17:38.875Z,52.94
2022-10-13T14:20:11.615Z,52.56
2022-10-13T14:22:44.283Z,53.69
2022-10-13T14:25:18.209Z,54.10
2022-10-13T14:27:51.371Z,54.89
2022-10-13T14:30:23.658Z,55.34
2022-10-13T14:32:56.875Z,56.39
2022-10-13T14:35:31.140Z,56.71
2022-10-13T14:38:03.470Z,56.92
2022-10-13T14:40:40.626Z,56.84
2022-10-13T14:43:12.977Z,57.61
2022-10-13T14:45:45.287Z,58.59
2022-10-13T14:48:24.600Z,59.58
2022-10-13T14:50:57.323Z,60.14
2022-10-13T14:53:32.674Z,59.80
2022-10-13T14:56:15.437Z,59.87
2022-10-13T14:58:57.472Z,60.92
2022-10-13T15:01:34.746Z,61.86
2022-10-13T15:04:08.050Z,62.40
2022-10-13T15:06:40.500Z,62.85
2022-10-13T15:09:12.926Z,63.15
2022-10-13T15:11:45.827Z,62.61
2022-10-13T15:14:18.125Z,62.80
2022-10-13T15:16:50.781Z,63.07
2022-10-13T15:19:23.802Z,63.18
2022-10-13T15:21:56.091Z,63.36
2022-10-13T15:24:28.428Z,63.65
2022-10-13T15:27:01.094Z,63.65
2022-10-13T15:29:35.202Z,64.46
2022-10-13T15:32:09.685Z,64.42
2022-10-13T15:34:42.636Z,65.78
2022-10-13T15:37:14.999Z,63.90
2022-10-13T15:39:47.826Z,63.35
2022-10-13T15:42:20.416Z,63.42
2022-10-13T15:45:10.355Z,63.85
2022-10-13T15:47:43.427Z,63.43
2022-10-13T15:50:16.523Z,64.05
2022-10-13T15:52:48.837Z,64.42
2022-10-13T15:55:21.313Z,64.98
2022-10-13T15:57:53.655Z,65.28
2022-10-13T16:00:26.207Z,66.00
2022-10-13T16:02:58.622Z,66.43
2022-10-13T16:05:31.716Z,67.01
2022-10-13T16:08:04.175Z,67.19
2022-10-13T16:10:38.366Z,66.99
2022-10-13T16:13:14.479Z,66.92
2022-10-13T16:15:56.627Z,67.33
2022-10-13T16:18:30.178Z,67.84
2022-10-13T16:21:08.716Z,68.51
2022-10-13T16:23:41.178Z,69.25
2022-10-13T16:26:14.468Z,69.53
2022-10-13T16:28:46.989Z,69.93
2022-10-13T16:31:19.389Z,70.39
2022-10-13T16:33:51.715Z,70.37
2022-10-13T16:36:24.682Z,70.60
2022-10-13T16:38:57.611Z,70.50
2022-10-13T16:41:29.914Z,70.91
2022-10-13T16:44:02.408Z,70.89
2022-10-13T16:46:34.718Z,71.27
2022-10-13T16:49:07.006Z,71.28
2022-10-13T16:51:40.068Z,71.15
2022-10-13T16:54:12.361Z,71.14
2022-10-13T16:56:44.679Z,72.05
2022-10-13T16:59:17.143Z,72.95
2022-10-13T17:01:49.473Z,74.36
2022-10-13T17:04:22.341Z,75.19
2022-10-13T17:06:55.410Z,75.30
2022-10-13T17:09:27.846Z,76.15
2022-10-13T17:12:01.464Z,76.24
2022-10-13T17:14:33.894Z,76.38
2022-10-13T17:17:06.251Z,76.34
2022-10-13T17:19:38.531Z,76.72
2022-10-13T17:22:11.511Z,76.72
2022-10-13T17:24:47.470Z,76.02
2022-10-13T17:27:20.005Z,75.81
2022-10-13T17:29:53.043Z,75.28
2022-10-13T17:32:25.388Z,74.83
2022-10-13T17:34:57.662Z,74.90
2022-10-13T17:37:30.646Z,74.71
2022-10-13T17:40:03.176Z,74.50
2022-10-13T17:42:35.465Z,74.89
2022-10-13T17:45:08.916Z,75.44
2022-10-13T17:47:47.468Z,75.23
2022-10-13T17:50:20.002Z,75.34
2022-10-13T17:52:52.947Z,74.11
2022-10-13T17:55:25.275Z,74.02
2022-10-13T17:57:57.566Z,73.82
2022-10-13T18:00:29.945Z,73.52
2022-10-13T18:03:02.249Z,74.57
2022-10-13T18:05:34.531Z,74.63
2022-10-13T18:08:08.585Z,74.98
2022-10-13T18:11:07.267Z,74.07
2022-10-13T18:13:36.490Z,74.58
2022-10-13T18:16:11.429Z,74.01
2022-10-13T18:18:44.675Z,73.30
2022-10-13T18:21:18.899Z,75.14
2022-10-13T18:24:00.602Z,77.13
2022-10-13T18:26:35.057Z,77.38
2022-10-13T18:29:09.007Z,78.13
2022-10-13T18:31:41.818Z,78.82
2022-10-13T18:34:16.281Z,79.59
2022-10-13T18:36:51.378Z,79.92
2022-10-13T18:39:26.176Z,80.10
2022-10-13T18:41:58.511Z,80.25
2022-10-13T18:44:39.315Z,80.79
2022-10-13T18:47:11.615Z,81.21
2022-10-13T18:49:43.966Z,81.23
2022-10-13T18:52:16.727Z,81.45
2022-10-13T18:54:50.389Z,81.69
2022-10-13T18:57:22.978Z,82.46
2022-10-13T18:59:55.503Z,83.52
2022-10-13T19:02:33.894Z,83.18
2022-10-13T19:05:06.474Z,83.32
2022-10-13T19:07:39.259Z,83.28
2022-10-13T19:10:12.293Z,81.91
2022-10-13T19:12:47.369Z,81.45
2022-10-13T19:15:19.676Z,79.73
2022-10-13T19:17:52.618Z,79.42
2022-10-13T19:20:24.997Z,78.12
2022-10-13T19:22:58.388Z,78.81
2022-10-13T19:25:31.354Z,79.04
2022-10-13T19:28:03.835Z,78.87
2022-10-13T19:30:36.238Z,79.41
2022-10-13T19:33:11.163Z,79.70
2022-10-13T19:35:53.288Z,79.54
2022-10-13T19:38:25.741Z,79.65
2022-10-13T19:41:03.012Z,79.57
2022-10-13T19:43:35.334Z,79.37
2022-10-13T19:46:08.442Z,79.14
2022-10-13T19:48:40.907Z,78.14
2022-10-13T19:51:13.866Z,78.06
2022-10-13T19:53:46.307Z,78.70
2022-10-13T19:56:22.220Z,78.95
2022-10-13T19:58:54.576Z,78.90
2022-10-13T20:01:27.918Z,79.34
2022-10-13T20:04:00.770Z,79.90
2022-10-13T20:06:33.478Z,79.34
2022-10-13T20:09:05.971Z,79.65
2022-10-13T20:11:38.939Z,79.77
2022-10-13T20:14:11.319Z,80.15
2022-10-13T20:16:43.949Z,79.61
2022-10-13T20:19:18.713Z,79.67
2022-10-13T20:21:52.175Z,79.63
2022-10-13T20:24:24.570Z,79.42
2022-10-13T20:26:58.943Z,79.49
2022-10-13T20:29:31.482Z,79.22
2022-10-13T20:32:04.119Z,79.36
2022-10-13T20:34:38.395Z,78.73
2022-10-13T20:37:10.804Z,78.50
2022-10-13T20:39:43.174Z,79.00
2022-10-13T20:42:16.156Z,79.06
2022-10-13T20:44:48.478Z,78.56
2022-10-13T20:47:20.881Z,78.42
2022-10-13T20:49:53.391Z,79.03
2022-10-13T20:52:25.632Z,79.38
2022-10-13T20:54:57.930Z,80.01
2022-10-13T20:57:31.376Z,79.93
2022-10-13T21:00:04.690Z,79.99
2022-10-13T21:02:37.136Z,80.24
2022-10-13T21:05:09.482Z,80.07
2022-10-13T21:07:42.714Z,80.07
2022-10-13T21:10:15.087Z,80.27
2022-10-13T21:12:48.031Z,80.48
2022-10-13T21:15:20.338Z,80.49
2022-10-13T21:17:52.619Z,80.37
2022-10-13T21:20:25.012Z,80.53
2022-10-13T21:22:57.331Z,80.86
2022-10-13T21:25:30.080Z,80.41
2022-10-13T21:28:06.002Z,80.79
2022-10-13T21:30:38.338Z,81.65
2022-10-13T21:33:10.675Z,81.32
2022-10-13T21:35:42.957Z,81.76
2022-10-13T21:38:15.216Z,82.97
2022-10-13T21:40:54.019Z,83.62
2022-10-13T21:43:27.173Z,83.92
2022-10-13T21:46:08.155Z,84.54
2022-10-13T21:48:45.865Z,85.26
2022-10-13T21:51:20.130Z,85.93
2022-10-13T21:53:54.119Z,85.92
2022-10-13T21:56:27.354Z,86.27
2022-10-13T21:59:01.034Z,86.75
2022-10-13T22:01:34.085Z,86.74
2022-10-13T22:04:07.511Z,86.97
2022-10-13T22:06:40.010Z,87.35
2022-10-13T22:09:12.957Z,87.44
2022-10-13T22:11:45.260Z,87.07
2022-10-13T22:14:18.276Z,87.43
2022-10-13T22:16:51.934Z,88.14
2022-10-13T22:19:24.269Z,88.43
2022-10-13T22:21:56.612Z,87.43
2022-10-13T22:24:31.960Z,86.92
2022-10-13T22:27:04.296Z,87.37
2022-10-13T22:29:37.445Z,87.92
2022-10-13T22:32:09.805Z,88.34
2022-10-13T22:34:42.317Z,88.57
2022-10-13T22:37:14.707Z,88.64
2022-10-13T22:39:47.063Z,88.47
2022-10-13T22:42:20.595Z,88.98
2022-10-13T22:44:53.581Z,89.13
2022-10-13T22:47:26.083Z,88.92
2022-10-13T22:49:58.401Z,89.46
2022-10-13T22:52:30.747Z,89.15
2022-10-13T22:55:03.203Z,88.97
2022-10-13T22:57:37.109Z,88.35
2022-10-13T23:00:12.696Z,88.63
2022-10-13T23:02:46.737Z,88.68
2022-10-13T23:05:19.036Z,88.79
2022-10-13T23:07:51.314Z,88.89
2022-10-13T23:10:23.989Z,89.20
2022-10-13T23:12:56.298Z,89.04
2022-10-13T23:15:33.104Z,89.41
2022-10-13T23:18:05.511Z,89.30
2022-10-13T23:20:39.280Z,89.36
2022-10-13T23:23:11.600Z,89.48
2022-10-13T23:25:43.896Z,89.78
2022-10-13T23:28:16.463Z,89.91
2022-10-13T23:30:49.400Z,90.42
2022-10-13T23:33:22.494Z,90.19
2022-10-13T23:35:54.986Z,89.94
2022-10-13T23:38:28.682Z,89.76
2022-10-13T23:41:05.719Z,89.96
2022-10-13T23:43:39.846Z,90.23
2022-10-13T23:46:12.841Z,90.45
2022-10-13T23:48:45.397Z,90.45
2022-10-13T23:51:20.029Z,90.90
2022-10-13T23:53:52.837Z,90.72
2022-10-13T23:56:25.327Z,90.25
2022-10-13T23:58:57.601Z,90.98
